sensor_id;sensor_type;location;lat;lon;timestamp;temperature;humidity
19138;DHT22;68178;52.188;5.598;2023-09-08T00:02:06;22.30;99.90
19138;DHT22;68178;52.188;5.598;2023-09-08T00:04:32;22.20;99.90
19138;DHT22;68178;52.188;5.598;2023-09-08T00:07:00;22.20;99.90
19138;DHT22;68178;52.188;5.598;2023-09-08T00:09:26;22.20;99.90
19138;DHT22;68178;52.188;5.598;2023-09-08T00:11:52;22.00;99.90
19138;DHT22;68178;52.188;5.598;2023-09-08T00:14:19;22.00;99.90
19138;DHT22;68178;52.188;5.598;2023-09-08T00:16:45;22.10;99.90
19138;DHT22;68178;52.188;5.598;2023-09-08T00:19:10;22.20;99.90
19138;DHT22;68178;52.188;5.598;2023-09-08T00:21:36;22.10;99.90
19138;DHT22;68178;52.188;5.598;2023-09-08T00:24:03;22.10;99.90
19138;DHT22;68178;52.188;5.598;2023-09-08T00:26:29;21.90;99.90
19138;DHT22;68178;52.188;5.598;2023-09-08T00:28:55;21.80;99.90
19138;DHT22;68178;52.188;5.598;2023-09-08T00:31:21;21.80;99.90
19138;DHT22;68178;52.188;5.598;2023-09-08T00:33:46;21.80;99.90
19138;DHT22;68178;52.188;5.598;2023-09-08T00:36:15;21.70;99.90
19138;DHT22;68178;52.188;5.598;2023-09-08T00:38:41;21.60;99.90
19138;DHT22;68178;52.188;5.598;2023-09-08T00:41:07;21.60;99.90
19138;DHT22;68178;52.188;5.598;2023-09-08T00:43:33;21.60;99.90
19138;DHT22;68178;52.188;5.598;2023-09-08T00:45:59;21.70;99.90
19138;DHT22;68178;52.188;5.598;2023-09-08T00:48:26;21.50;99.90
19138;DHT22;68178;52.188;5.598;2023-09-08T00:50:52;21.60;99.90
19138;DHT22;68178;52.188;5.598;2023-09-08T00:53:17;21.60;99.90
19138;DHT22;68178;52.188;5.598;2023-09-08T00:55:43;21.70;99.90
19138;DHT22;68178;52.188;5.598;2023-09-08T00:58:11;21.60;99.90
19138;DHT22;68178;52.188;5.598;2023-09-08T01:00:37;21.60;99.90
19138;DHT22;68178;52.188;5.598;2023-09-08T01:03:03;21.60;99.90
19138;DHT22;68178;52.188;5.598;2023-09-08T01:05:29;21.70;99.90
19138;DHT22;68178;52.188;5.598;2023-09-08T01:07:55;21.70;99.90
19138;DHT22;68178;52.188;5.598;2023-09-08T01:10:21;21.70;99.90
19138;DHT22;68178;52.188;5.598;2023-09-08T01:12:47;21.60;99.90
19138;DHT22;68178;52.188;5.598;2023-09-08T01:15:12;21.50;99.90
19138;DHT22;68178;52.188;5.598;2023-09-08T01:17:38;21.40;99.90
19138;DHT22;68178;52.188;5.598;2023-09-08T01:23:03;21.30;99.90
19138;DHT22;68178;52.188;5.598;2023-09-08T01:25:33;21.10;99.90
19138;DHT22;68178;52.188;5.598;2023-09-08T01:28:01;21.20;99.90
19138;DHT22;68178;52.188;5.598;2023-09-08T01:30:29;21.30;99.90
19138;DHT22;68178;52.188;5.598;2023-09-08T01:32:58;21.30;99.90
19138;DHT22;68178;52.188;5.598;2023-09-08T01:35:25;21.30;99.90
19138;DHT22;68178;52.188;5.598;2023-09-08T01:37:50;21.40;99.90
19138;DHT22;68178;52.188;5.598;2023-09-08T01:40:16;21.40;99.90
19138;DHT22;68178;52.188;5.598;2023-09-08T01:42:45;21.30;99.90
19138;DHT22;68178;52.188;5.598;2023-09-08T01:45:10;21.20;99.90
19138;DHT22;68178;52.188;5.598;2023-09-08T01:47:37;21.30;99.90
19138;DHT22;68178;52.188;5.598;2023-09-08T01:50:02;21.40;99.90
19138;DHT22;68178;52.188;5.598;2023-09-08T01:52:28;21.20;99.90
19138;DHT22;68178;52.188;5.598;2023-09-08T01:54:54;21.30;99.90
19138;DHT22;68178;52.188;5.598;2023-09-08T01:57:19;21.30;99.90
19138;DHT22;68178;52.188;5.598;2023-09-08T01:59:45;21.30;99.90
19138;DHT22;68178;52.188;5.598;2023-09-08T02:02:14;21.30;99.90
19138;DHT22;68178;52.188;5.598;2023-09-08T02:04:40;21.20;99.90
19138;DHT22;68178;52.188;5.598;2023-09-08T02:07:05;21.20;99.90
19138;DHT22;68178;52.188;5.598;2023-09-08T02:09:35;21.10;99.90
19138;DHT22;68178;52.188;5.598;2023-09-08T02:12:01;21.00;99.90
19138;DHT22;68178;52.188;5.598;2023-09-08T02:14:27;20.90;99.90
19138;DHT22;68178;52.188;5.598;2023-09-08T02:16:53;20.90;99.90
19138;DHT22;68178;52.188;5.598;2023-09-08T02:19:19;20.90;99.90
19138;DHT22;68178;52.188;5.598;2023-09-08T02:21:45;20.90;99.90
19138;DHT22;68178;52.188;5.598;2023-09-08T02:24:10;21.00;99.90
19138;DHT22;68178;52.188;5.598;2023-09-08T02:26:37;21.00;99.90
19138;DHT22;68178;52.188;5.598;2023-09-08T02:29:03;20.90;99.90
19138;DHT22;68178;52.188;5.598;2023-09-08T02:31:28;20.90;99.90
19138;DHT22;68178;52.188;5.598;2023-09-08T02:33:54;20.80;99.90
19138;DHT22;68178;52.188;5.598;2023-09-08T02:36:19;20.70;99.90
19138;DHT22;68178;52.188;5.598;2023-09-08T02:38:51;20.70;99.90
19138;DHT22;68178;52.188;5.598;2023-09-08T02:41:18;20.70;99.90
19138;DHT22;68178;52.188;5.598;2023-09-08T02:43:44;20.80;99.90
19138;DHT22;68178;52.188;5.598;2023-09-08T02:46:09;20.80;99.90
19138;DHT22;68178;52.188;5.598;2023-09-08T02:48:35;20.70;99.90
19138;DHT22;68178;52.188;5.598;2023-09-08T02:51:01;20.70;99.90
19138;DHT22;68178;52.188;5.598;2023-09-08T02:53:26;20.60;99.90
19138;DHT22;68178;52.188;5.598;2023-09-08T02:55:54;20.60;99.90
19138;DHT22;68178;52.188;5.598;2023-09-08T02:58:20;20.60;99.90
19138;DHT22;68178;52.188;5.598;2023-09-08T03:00:45;20.50;99.90
19138;DHT22;68178;52.188;5.598;2023-09-08T03:03:11;20.50;99.90
19138;DHT22;68178;52.188;5.598;2023-09-08T03:05:37;20.30;99.90
19138;DHT22;68178;52.188;5.598;2023-09-08T03:08:03;20.40;99.90
19138;DHT22;68178;52.188;5.598;2023-09-08T03:10:28;20.40;99.90
19138;DHT22;68178;52.188;5.598;2023-09-08T03:12:54;20.50;99.90
19138;DHT22;68178;52.188;5.598;2023-09-08T03:15:20;20.50;99.90
19138;DHT22;68178;52.188;5.598;2023-09-08T03:17:46;20.50;99.90
19138;DHT22;68178;52.188;5.598;2023-09-08T03:20:11;20.40;99.90
19138;DHT22;68178;52.188;5.598;2023-09-08T03:22:39;20.40;99.90
19138;DHT22;68178;52.188;5.598;2023-09-08T03:25:05;20.30;99.90
19138;DHT22;68178;52.188;5.598;2023-09-08T03:27:31;20.30;99.90
19138;DHT22;68178;52.188;5.598;2023-09-08T03:29:56;20.40;99.90
19138;DHT22;68178;52.188;5.598;2023-09-08T03:32:22;20.30;99.90
19138;DHT22;68178;52.188;5.598;2023-09-08T03:34:47;20.20;99.90
19138;DHT22;68178;52.188;5.598;2023-09-08T03:37:13;20.20;99.90
19138;DHT22;68178;52.188;5.598;2023-09-08T03:39:40;20.20;99.90
19138;DHT22;68178;52.188;5.598;2023-09-08T03:42:06;20.10;99.90
19138;DHT22;68178;52.188;5.598;2023-09-08T03:44:32;20.00;99.90
19138;DHT22;68178;52.188;5.598;2023-09-08T03:46:57;20.00;99.90
19138;DHT22;68178;52.188;5.598;2023-09-08T03:49:23;19.80;99.90
19138;DHT22;68178;52.188;5.598;2023-09-08T03:51:48;19.90;99.90
19138;DHT22;68178;52.188;5.598;2023-09-08T03:54:14;19.80;99.90
19138;DHT22;68178;52.188;5.598;2023-09-08T03:56:39;19.80;99.90
19138;DHT22;68178;52.188;5.598;2023-09-08T03:59:05;19.80;99.90
19138;DHT22;68178;52.188;5.598;2023-09-08T04:01:30;19.70;99.90
19138;DHT22;68178;52.188;5.598;2023-09-08T04:03:56;19.80;99.90
19138;DHT22;68178;52.188;5.598;2023-09-08T04:06:22;19.80;99.90
19138;DHT22;68178;52.188;5.598;2023-09-08T04:08:47;19.80;99.90
19138;DHT22;68178;52.188;5.598;2023-09-08T04:11:13;19.80;99.90
19138;DHT22;68178;52.188;5.598;2023-09-08T04:13:38;19.80;99.90
19138;DHT22;68178;52.188;5.598;2023-09-08T04:16:04;19.80;99.90
19138;DHT22;68178;52.188;5.598;2023-09-08T04:18:29;19.80;99.90
19138;DHT22;68178;52.188;5.598;2023-09-08T04:20:55;19.70;99.90
19138;DHT22;68178;52.188;5.598;2023-09-08T04:23:20;19.70;99.90
19138;DHT22;68178;52.188;5.598;2023-09-08T04:25:46;19.70;99.90
19138;DHT22;68178;52.188;5.598;2023-09-08T04:28:11;19.60;99.90
19138;DHT22;68178;52.188;5.598;2023-09-08T04:30:37;19.70;99.90
19138;DHT22;68178;52.188;5.598;2023-09-08T04:33:03;19.80;99.90
19138;DHT22;68178;52.188;5.598;2023-09-08T04:35:28;19.80;99.90
19138;DHT22;68178;52.188;5.598;2023-09-08T04:37:54;19.90;99.90
19138;DHT22;68178;52.188;5.598;2023-09-08T04:40:19;19.70;99.90
19138;DHT22;68178;52.188;5.598;2023-09-08T04:42:45;19.50;99.90
19138;DHT22;68178;52.188;5.598;2023-09-08T04:45:10;19.50;99.90
19138;DHT22;68178;52.188;5.598;2023-09-08T04:47:36;19.50;99.90
19138;DHT22;68178;52.188;5.598;2023-09-08T04:50:02;20.10;99.90
19138;DHT22;68178;52.188;5.598;2023-09-08T04:52:29;19.30;99.90
19138;DHT22;68178;52.188;5.598;2023-09-08T04:54:54;19.30;99.90
19138;DHT22;68178;52.188;5.598;2023-09-08T04:57:20;19.40;99.90
19138;DHT22;68178;52.188;5.598;2023-09-08T04:59:46;19.40;99.90
19138;DHT22;68178;52.188;5.598;2023-09-08T05:02:11;19.40;99.90
19138;DHT22;68178;52.188;5.598;2023-09-08T05:04:37;19.20;99.90
19138;DHT22;68178;52.188;5.598;2023-09-08T05:07:02;19.40;99.90
19138;DHT22;68178;52.188;5.598;2023-09-08T05:09:28;19.40;99.90
19138;DHT22;68178;52.188;5.598;2023-09-08T05:11:54;19.40;99.90
19138;DHT22;68178;52.188;5.598;2023-09-08T05:14:19;19.50;99.90
19138;DHT22;68178;52.188;5.598;2023-09-08T05:16:45;19.50;99.90
19138;DHT22;68178;52.188;5.598;2023-09-08T05:19:12;19.60;99.90
19138;DHT22;68178;52.188;5.598;2023-09-08T05:21:41;19.50;99.90
19138;DHT22;68178;52.188;5.598;2023-09-08T05:24:08;19.60;99.90
19138;DHT22;68178;52.188;5.598;2023-09-08T05:26:36;19.40;99.90
19138;DHT22;68178;52.188;5.598;2023-09-08T05:29:02;19.60;99.90
19138;DHT22;68178;52.188;5.598;2023-09-08T05:31:28;19.50;99.90
19138;DHT22;68178;52.188;5.598;2023-09-08T05:33:53;19.60;99.90
19138;DHT22;68178;52.188;5.598;2023-09-08T05:36:19;19.50;99.90
19138;DHT22;68178;52.188;5.598;2023-09-08T05:38:45;19.50;99.90
19138;DHT22;68178;52.188;5.598;2023-09-08T05:43:36;19.20;99.90
19138;DHT22;68178;52.188;5.598;2023-09-08T05:46:02;19.10;99.90
19138;DHT22;68178;52.188;5.598;2023-09-08T05:53:19;19.50;99.90
19138;DHT22;68178;52.188;5.598;2023-09-08T05:55:45;19.50;99.90
19138;DHT22;68178;52.188;5.598;2023-09-08T05:58:10;19.50;99.90
19138;DHT22;68178;52.188;5.598;2023-09-08T06:00:36;19.50;99.90
19138;DHT22;68178;52.188;5.598;2023-09-08T06:03:02;19.60;99.90
19138;DHT22;68178;52.188;5.598;2023-09-08T06:05:28;19.70;99.90
19138;DHT22;68178;52.188;5.598;2023-09-08T06:07:53;19.70;99.90
19138;DHT22;68178;52.188;5.598;2023-09-08T06:10:19;19.90;99.90
19138;DHT22;68178;52.188;5.598;2023-09-08T06:12:44;19.80;99.90
19138;DHT22;68178;52.188;5.598;2023-09-08T06:15:10;19.90;99.90
19138;DHT22;68178;52.188;5.598;2023-09-08T06:17:35;19.90;99.90
19138;DHT22;68178;52.188;5.598;2023-09-08T06:20:02;19.90;99.90
19138;DHT22;68178;52.188;5.598;2023-09-08T06:22:27;20.00;99.90
19138;DHT22;68178;52.188;5.598;2023-09-08T06:24:53;20.10;99.90
19138;DHT22;68178;52.188;5.598;2023-09-08T06:27:18;20.20;99.90
19138;DHT22;68178;52.188;5.598;2023-09-08T06:29:44;20.30;99.90
19138;DHT22;68178;52.188;5.598;2023-09-08T06:32:10;20.30;99.90
19138;DHT22;68178;52.188;5.598;2023-09-08T06:34:36;20.50;99.90
19138;DHT22;68178;52.188;5.598;2023-09-08T06:37:02;20.60;99.90
19138;DHT22;68178;52.188;5.598;2023-09-08T06:39:28;20.70;99.90
19138;DHT22;68178;52.188;5.598;2023-09-08T06:41:56;20.80;99.90
19138;DHT22;68178;52.188;5.598;2023-09-08T06:44:22;20.90;99.90
19138;DHT22;68178;52.188;5.598;2023-09-08T06:46:48;21.10;99.90
19138;DHT22;68178;52.188;5.598;2023-09-08T06:49:13;21.00;99.90
19138;DHT22;68178;52.188;5.598;2023-09-08T06:51:39;21.10;99.90
19138;DHT22;68178;52.188;5.598;2023-09-08T06:54:05;21.20;99.90
19138;DHT22;68178;52.188;5.598;2023-09-08T06:56:30;21.30;99.90
19138;DHT22;68178;52.188;5.598;2023-09-08T06:58:56;21.40;99.90
19138;DHT22;68178;52.188;5.598;2023-09-08T07:01:25;21.40;99.90
19138;DHT22;68178;52.188;5.598;2023-09-08T07:03:51;21.50;99.90
19138;DHT22;68178;52.188;5.598;2023-09-08T07:06:17;21.60;99.90
19138;DHT22;68178;52.188;5.598;2023-09-08T07:08:42;21.80;99.90
19138;DHT22;68178;52.188;5.598;2023-09-08T07:11:08;21.90;99.90
19138;DHT22;68178;52.188;5.598;2023-09-08T07:13:34;22.00;99.90
19138;DHT22;68178;52.188;5.598;2023-09-08T07:15:59;22.10;99.90
19138;DHT22;68178;52.188;5.598;2023-09-08T07:18:25;22.20;99.90
19138;DHT22;68178;52.188;5.598;2023-09-08T07:20:50;22.10;99.90
19138;DHT22;68178;52.188;5.598;2023-09-08T07:23:17;22.20;99.90
19138;DHT22;68178;52.188;5.598;2023-09-08T07:25:47;22.30;99.90
19138;DHT22;68178;52.188;5.598;2023-09-08T07:28:14;22.40;99.90
19138;DHT22;68178;52.188;5.598;2023-09-08T07:30:39;22.50;99.90
19138;DHT22;68178;52.188;5.598;2023-09-08T07:33:05;22.50;99.90
19138;DHT22;68178;52.188;5.598;2023-09-08T07:35:31;22.50;99.90
19138;DHT22;68178;52.188;5.598;2023-09-08T07:37:57;22.60;99.90
19138;DHT22;68178;52.188;5.598;2023-09-08T07:40:23;22.80;99.90
19138;DHT22;68178;52.188;5.598;2023-09-08T07:42:48;22.80;99.90
19138;DHT22;68178;52.188;5.598;2023-09-08T07:45:14;22.90;99.90
19138;DHT22;68178;52.188;5.598;2023-09-08T07:47:39;23.10;99.90
19138;DHT22;68178;52.188;5.598;2023-09-08T07:50:18;23.20;99.90
19138;DHT22;68178;52.188;5.598;2023-09-08T07:52:45;23.30;99.90
19138;DHT22;68178;52.188;5.598;2023-09-08T07:55:11;23.40;99.90
19138;DHT22;68178;52.188;5.598;2023-09-08T07:57:37;23.50;99.90
19138;DHT22;68178;52.188;5.598;2023-09-08T08:00:03;23.60;99.90
19138;DHT22;68178;52.188;5.598;2023-09-08T08:02:29;23.60;99.90
19138;DHT22;68178;52.188;5.598;2023-09-08T08:04:56;23.70;99.90
19138;DHT22;68178;52.188;5.598;2023-09-08T08:07:22;23.80;99.90
19138;DHT22;68178;52.188;5.598;2023-09-08T08:09:48;23.80;99.90
19138;DHT22;68178;52.188;5.598;2023-09-08T08:12:13;23.80;99.90
19138;DHT22;68178;52.188;5.598;2023-09-08T08:14:39;24.00;99.90
19138;DHT22;68178;52.188;5.598;2023-09-08T08:17:05;24.10;99.90
19138;DHT22;68178;52.188;5.598;2023-09-08T08:19:31;24.20;99.90
19138;DHT22;68178;52.188;5.598;2023-09-08T08:21:56;24.40;99.90
19138;DHT22;68178;52.188;5.598;2023-09-08T08:24:23;24.50;99.90
19138;DHT22;68178;52.188;5.598;2023-09-08T08:26:48;24.70;99.90
19138;DHT22;68178;52.188;5.598;2023-09-08T08:29:14;24.80;99.90
19138;DHT22;68178;52.188;5.598;2023-09-08T08:31:40;25.00;99.90
19138;DHT22;68178;52.188;5.598;2023-09-08T08:34:06;25.10;99.90
19138;DHT22;68178;52.188;5.598;2023-09-08T08:36:31;25.10;99.90
19138;DHT22;68178;52.188;5.598;2023-09-08T08:38:57;25.20;99.90
19138;DHT22;68178;52.188;5.598;2023-09-08T08:41:23;25.30;99.90
19138;DHT22;68178;52.188;5.598;2023-09-08T08:43:48;25.40;99.90
19138;DHT22;68178;52.188;5.598;2023-09-08T08:46:16;25.60;99.90
19138;DHT22;68178;52.188;5.598;2023-09-08T08:48:44;25.70;99.90
19138;DHT22;68178;52.188;5.598;2023-09-08T08:51:11;25.80;99.90
19138;DHT22;68178;52.188;5.598;2023-09-08T08:53:39;26.00;99.90
19138;DHT22;68178;52.188;5.598;2023-09-08T08:56:05;26.10;99.90
19138;DHT22;68178;52.188;5.598;2023-09-08T08:58:34;26.20;99.90
19138;DHT22;68178;52.188;5.598;2023-09-08T09:01:01;26.40;99.90
19138;DHT22;68178;52.188;5.598;2023-09-08T09:03:27;26.40;99.90
19138;DHT22;68178;52.188;5.598;2023-09-08T09:05:53;26.50;99.90
19138;DHT22;68178;52.188;5.598;2023-09-08T09:08:19;26.50;99.90
19138;DHT22;68178;52.188;5.598;2023-09-08T09:10:45;26.60;99.90
19138;DHT22;68178;52.188;5.598;2023-09-08T09:13:10;26.70;99.90
19138;DHT22;68178;52.188;5.598;2023-09-08T09:15:36;26.80;99.90
19138;DHT22;68178;52.188;5.598;2023-09-08T09:18:06;26.70;99.90
19138;DHT22;68178;52.188;5.598;2023-09-08T09:20:32;26.70;99.90
19138;DHT22;68178;52.188;5.598;2023-09-08T09:22:57;26.70;99.90
19138;DHT22;68178;52.188;5.598;2023-09-08T09:25:28;26.80;99.90
19138;DHT22;68178;52.188;5.598;2023-09-08T09:27:56;26.80;99.90
19138;DHT22;68178;52.188;5.598;2023-09-08T09:30:23;26.80;99.90
19138;DHT22;68178;52.188;5.598;2023-09-08T09:33:00;27.00;99.90
19138;DHT22;68178;52.188;5.598;2023-09-08T09:35:43;27.10;99.90
19138;DHT22;68178;52.188;5.598;2023-09-08T09:38:09;27.10;99.90
19138;DHT22;68178;52.188;5.598;2023-09-08T09:40:35;27.10;99.90
19138;DHT22;68178;52.188;5.598;2023-09-08T09:43:01;27.10;99.90
19138;DHT22;68178;52.188;5.598;2023-09-08T09:45:26;27.20;99.90
19138;DHT22;68178;52.188;5.598;2023-09-08T09:47:52;27.20;99.90
19138;DHT22;68178;52.188;5.598;2023-09-08T09:50:35;27.30;99.90
19138;DHT22;68178;52.188;5.598;2023-09-08T09:53:35;27.40;99.90
19138;DHT22;68178;52.188;5.598;2023-09-08T09:55:54;27.40;99.90
19138;DHT22;68178;52.188;5.598;2023-09-08T09:58:20;27.60;99.90
19138;DHT22;68178;52.188;5.598;2023-09-08T10:00:46;27.60;99.90
19138;DHT22;68178;52.188;5.598;2023-09-08T10:03:13;27.70;99.90
19138;DHT22;68178;52.188;5.598;2023-09-08T10:05:39;27.80;99.90
19138;DHT22;68178;52.188;5.598;2023-09-08T10:08:05;27.90;99.90
19138;DHT22;68178;52.188;5.598;2023-09-08T10:10:32;27.90;99.90
19138;DHT22;68178;52.188;5.598;2023-09-08T10:13:03;28.10;99.90
19138;DHT22;68178;52.188;5.598;2023-09-08T10:15:31;28.10;99.90
19138;DHT22;68178;52.188;5.598;2023-09-08T10:17:57;28.20;99.90
19138;DHT22;68178;52.188;5.598;2023-09-08T10:20:25;28.40;99.90
19138;DHT22;68178;52.188;5.598;2023-09-08T10:25:32;28.80;99.90
19138;DHT22;68178;52.188;5.598;2023-09-08T10:28:01;28.90;99.90
19138;DHT22;68178;52.188;5.598;2023-09-08T10:30:27;29.00;99.90
19138;DHT22;68178;52.188;5.598;2023-09-08T10:32:53;29.30;99.90
19138;DHT22;68178;52.188;5.598;2023-09-08T10:35:19;29.50;99.90
19138;DHT22;68178;52.188;5.598;2023-09-08T10:37:45;29.70;99.90
19138;DHT22;68178;52.188;5.598;2023-09-08T10:40:24;29.80;99.90
19138;DHT22;68178;52.188;5.598;2023-09-08T10:43:10;29.90;99.90
19138;DHT22;68178;52.188;5.598;2023-09-08T10:45:36;29.90;99.90
19138;DHT22;68178;52.188;5.598;2023-09-08T10:48:02;29.90;99.90
19138;DHT22;68178;52.188;5.598;2023-09-08T10:50:33;29.90;99.90
19138;DHT22;68178;52.188;5.598;2023-09-08T10:53:13;30.20;99.90
19138;DHT22;68178;52.188;5.598;2023-09-08T10:55:48;30.20;99.90
19138;DHT22;68178;52.188;5.598;2023-09-08T10:58:20;30.40;99.90
19138;DHT22;68178;52.188;5.598;2023-09-08T11:00:47;30.50;99.90
19138;DHT22;68178;52.188;5.598;2023-09-08T11:03:47;30.60;99.90
19138;DHT22;68178;52.188;5.598;2023-09-08T11:06:18;30.80;99.90
19138;DHT22;68178;52.188;5.598;2023-09-08T11:08:45;30.90;99.90
19138;DHT22;68178;52.188;5.598;2023-09-08T11:11:12;31.10;99.90
19138;DHT22;68178;52.188;5.598;2023-09-08T11:13:38;31.20;99.90
19138;DHT22;68178;52.188;5.598;2023-09-08T11:16:06;31.40;99.90
19138;DHT22;68178;52.188;5.598;2023-09-08T11:18:33;31.50;99.90
19138;DHT22;68178;52.188;5.598;2023-09-08T11:21:03;31.60;99.90
19138;DHT22;68178;52.188;5.598;2023-09-08T11:23:29;31.80;99.90
19138;DHT22;68178;52.188;5.598;2023-09-08T11:25:56;32.00;99.90
19138;DHT22;68178;52.188;5.598;2023-09-08T11:28:22;31.90;99.90
19138;DHT22;68178;52.188;5.598;2023-09-08T11:30:49;32.10;99.90
19138;DHT22;68178;52.188;5.598;2023-09-08T11:33:16;32.40;99.90
19138;DHT22;68178;52.188;5.598;2023-09-08T11:35:42;32.30;99.90
19138;DHT22;68178;52.188;5.598;2023-09-08T11:38:10;32.50;99.90
19138;DHT22;68178;52.188;5.598;2023-09-08T11:40:36;32.60;99.90
19138;DHT22;68178;52.188;5.598;2023-09-08T11:43:03;32.60;99.90
19138;DHT22;68178;52.188;5.598;2023-09-08T11:45:30;32.70;99.90
19138;DHT22;68178;52.188;5.598;2023-09-08T11:47:56;32.90;99.90
19138;DHT22;68178;52.188;5.598;2023-09-08T11:50:23;32.70;99.90
19138;DHT22;68178;52.188;5.598;2023-09-08T11:52:50;32.80;99.90
19138;DHT22;68178;52.188;5.598;2023-09-08T11:55:18;33.00;99.90
19138;DHT22;68178;52.188;5.598;2023-09-08T11:57:46;33.20;99.90
19138;DHT22;68178;52.188;5.598;2023-09-08T12:00:13;33.20;99.90
19138;DHT22;68178;52.188;5.598;2023-09-08T12:02:44;33.40;99.90
19138;DHT22;68178;52.188;5.598;2023-09-08T12:07:45;33.10;99.90
19138;DHT22;68178;52.188;5.598;2023-09-08T12:10:11;33.40;99.90
19138;DHT22;68178;52.188;5.598;2023-09-08T12:12:48;33.70;99.90
19138;DHT22;68178;52.188;5.598;2023-09-08T12:17:57;34.00;99.90
19138;DHT22;68178;52.188;5.598;2023-09-08T12:20:23;34.20;99.90
19138;DHT22;68178;52.188;5.598;2023-09-08T12:22:50;34.40;99.90
19138;DHT22;68178;52.188;5.598;2023-09-08T12:25:15;34.30;99.90
19138;DHT22;68178;52.188;5.598;2023-09-08T12:27:42;34.00;99.90
19138;DHT22;68178;52.188;5.598;2023-09-08T12:30:09;34.20;99.90
19138;DHT22;68178;52.188;5.598;2023-09-08T12:32:35;34.50;99.90
19138;DHT22;68178;52.188;5.598;2023-09-08T12:35:03;34.70;99.90
19138;DHT22;68178;52.188;5.598;2023-09-08T12:37:29;34.90;99.90
19138;DHT22;68178;52.188;5.598;2023-09-08T12:39:56;34.80;99.90
19138;DHT22;68178;52.188;5.598;2023-09-08T12:42:22;34.80;99.90
19138;DHT22;68178;52.188;5.598;2023-09-08T12:44:51;34.70;99.90
19138;DHT22;68178;52.188;5.598;2023-09-08T12:47:17;34.70;99.90
19138;DHT22;68178;52.188;5.598;2023-09-08T12:49:43;34.80;99.90
19138;DHT22;68178;52.188;5.598;2023-09-08T12:52:08;34.70;99.90
19138;DHT22;68178;52.188;5.598;2023-09-08T12:54:35;35.00;99.90
19138;DHT22;68178;52.188;5.598;2023-09-08T12:57:01;35.10;99.90
19138;DHT22;68178;52.188;5.598;2023-09-08T12:59:27;35.10;99.90
19138;DHT22;68178;52.188;5.598;2023-09-08T13:01:52;35.10;99.90
19138;DHT22;68178;52.188;5.598;2023-09-08T13:04:18;35.00;99.90
19138;DHT22;68178;52.188;5.598;2023-09-08T13:06:44;35.00;99.90
19138;DHT22;68178;52.188;5.598;2023-09-08T13:09:10;35.10;99.90
19138;DHT22;68178;52.188;5.598;2023-09-08T13:11:36;35.30;99.90
19138;DHT22;68178;52.188;5.598;2023-09-08T13:14:02;35.40;99.90
19138;DHT22;68178;52.188;5.598;2023-09-08T13:16:27;35.60;99.90
19138;DHT22;68178;52.188;5.598;2023-09-08T13:18:53;35.50;99.90
19138;DHT22;68178;52.188;5.598;2023-09-08T13:21:19;35.40;99.90
19138;DHT22;68178;52.188;5.598;2023-09-08T13:23:44;35.30;99.90
19138;DHT22;68178;52.188;5.598;2023-09-08T13:26:10;35.10;99.90
19138;DHT22;68178;52.188;5.598;2023-09-08T13:28:35;34.80;99.90
19138;DHT22;68178;52.188;5.598;2023-09-08T13:31:01;34.70;99.90
19138;DHT22;68178;52.188;5.598;2023-09-08T13:33:27;34.60;99.90
19138;DHT22;68178;52.188;5.598;2023-09-08T13:35:52;34.90;99.90
19138;DHT22;68178;52.188;5.598;2023-09-08T13:38:18;35.00;99.90
19138;DHT22;68178;52.188;5.598;2023-09-08T13:40:43;35.40;99.90
19138;DHT22;68178;52.188;5.598;2023-09-08T13:43:09;35.40;99.90
19138;DHT22;68178;52.188;5.598;2023-09-08T13:45:36;35.70;99.90
19138;DHT22;68178;52.188;5.598;2023-09-08T13:48:02;35.70;99.90
19138;DHT22;68178;52.188;5.598;2023-09-08T13:50:29;35.50;99.90
19138;DHT22;68178;52.188;5.598;2023-09-08T13:52:55;35.40;99.90
19138;DHT22;68178;52.188;5.598;2023-09-08T13:55:20;35.20;99.90
19138;DHT22;68178;52.188;5.598;2023-09-08T13:57:49;35.30;99.90
19138;DHT22;68178;52.188;5.598;2023-09-08T14:00:16;35.40;99.90
19138;DHT22;68178;52.188;5.598;2023-09-08T14:02:41;35.70;99.90
19138;DHT22;68178;52.188;5.598;2023-09-08T14:05:07;35.90;99.90
19138;DHT22;68178;52.188;5.598;2023-09-08T14:07:32;35.90;99.90
19138;DHT22;68178;52.188;5.598;2023-09-08T14:09:58;36.20;99.90
19138;DHT22;68178;52.188;5.598;2023-09-08T14:12:24;36.30;99.90
19138;DHT22;68178;52.188;5.598;2023-09-08T14:14:50;36.20;99.90
19138;DHT22;68178;52.188;5.598;2023-09-08T14:17:15;35.90;99.90
19138;DHT22;68178;52.188;5.598;2023-09-08T14:19:41;35.90;99.90
19138;DHT22;68178;52.188;5.598;2023-09-08T14:22:06;35.90;99.90
19138;DHT22;68178;52.188;5.598;2023-09-08T14:24:32;36.20;99.90
19138;DHT22;68178;52.188;5.598;2023-09-08T14:26:58;35.80;99.90
19138;DHT22;68178;52.188;5.598;2023-09-08T14:29:24;36.10;99.90
19138;DHT22;68178;52.188;5.598;2023-09-08T14:31:49;36.00;99.90
19138;DHT22;68178;52.188;5.598;2023-09-08T14:34:15;35.30;99.90
19138;DHT22;68178;52.188;5.598;2023-09-08T14:36:40;34.80;99.90
19138;DHT22;68178;52.188;5.598;2023-09-08T14:39:06;34.20;99.90
19138;DHT22;68178;52.188;5.598;2023-09-08T14:41:32;33.90;99.90
19138;DHT22;68178;52.188;5.598;2023-09-08T14:43:57;33.40;99.90
19138;DHT22;68178;52.188;5.598;2023-09-08T14:46:24;33.00;99.90
19138;DHT22;68178;52.188;5.598;2023-09-08T14:48:50;32.70;99.90
19138;DHT22;68178;52.188;5.598;2023-09-08T14:51:15;32.60;99.90
19138;DHT22;68178;52.188;5.598;2023-09-08T14:53:41;32.40;99.90
19138;DHT22;68178;52.188;5.598;2023-09-08T14:56:06;32.50;99.90
19138;DHT22;68178;52.188;5.598;2023-09-08T14:58:32;32.30;99.90
19138;DHT22;68178;52.188;5.598;2023-09-08T15:01:01;32.10;99.90
19138;DHT22;68178;52.188;5.598;2023-09-08T15:03:33;32.10;99.90
19138;DHT22;68178;52.188;5.598;2023-09-08T15:05:59;32.10;99.90
19138;DHT22;68178;52.188;5.598;2023-09-08T15:08:25;32.20;99.90
19138;DHT22;68178;52.188;5.598;2023-09-08T15:10:51;31.90;99.90
19138;DHT22;68178;52.188;5.598;2023-09-08T15:13:16;31.80;99.90
19138;DHT22;68178;52.188;5.598;2023-09-08T15:15:42;31.90;99.90
19138;DHT22;68178;52.188;5.598;2023-09-08T15:18:08;31.70;99.90
19138;DHT22;68178;52.188;5.598;2023-09-08T15:20:33;31.60;99.90
19138;DHT22;68178;52.188;5.598;2023-09-08T15:22:59;31.50;99.90
19138;DHT22;68178;52.188;5.598;2023-09-08T15:25:24;31.50;99.90
19138;DHT22;68178;52.188;5.598;2023-09-08T15:27:50;31.40;99.90
19138;DHT22;68178;52.188;5.598;2023-09-08T15:30:15;31.30;99.90
19138;DHT22;68178;52.188;5.598;2023-09-08T15:32:41;31.50;99.90
19138;DHT22;68178;52.188;5.598;2023-09-08T15:35:08;31.30;99.90
19138;DHT22;68178;52.188;5.598;2023-09-08T15:37:33;31.30;99.90
19138;DHT22;68178;52.188;5.598;2023-09-08T15:40:00;31.30;99.90
19138;DHT22;68178;52.188;5.598;2023-09-08T15:42:26;31.20;99.90
19138;DHT22;68178;52.188;5.598;2023-09-08T15:44:51;31.10;99.90